Palmer, AK (99645)

8:28 PM AKDT on April 28, 2017 (GMT -0800)
Britany estates | | Change Station

Elev 282 ft 61.60 °N, 149.14 °W | Updated 2 minutes ago

Clear
Clear
46.6 °F
Feels Like 44 °F
N
5.2
Wind Variable Wind from SE
Gusts 8.3 mph

Today
High -- | Low -- °F
--% Chance of Precip.
Yesterday
High -- | Low -- °F
Precip. -- in
Pressure 30.06 in
Visibility 10.0 miles
Clouds Clear
Windchill 44 °F
Dew Point 28 °F
Humidity 48%
Rainfall 0.02 in
Snow Depth Not available.
5:52 AM 9:56 PM
Waxing Crescent, 10% visible
METAR PAAQ 290353Z AUTO 16011KT 10SM CLR 09/M02 A3005 RMK AO2 SLP179 T00891022 TSNO
Pressure 30.06 in
Visibility 10.0 miles
Clouds Clear
Windchill 44 °F
Dew Point 28 °F
Humidity 48%
Rainfall 0.02 in
Snow Depth Not available.
5:52 AM 9:56 PM
Waxing Crescent, 10% visible
METAR PAAQ 290353Z AUTO 16011KT 10SM CLR 09/M02 A3005 RMK AO2 SLP179 T00891022 TSNO

Get Severe Weather Alerts

Thanks for signing up!

Be on the lookout for a verification email in your inbox.

You'll start receiving the daily forecast at 8 AM.

×

10-Day Weather Forecast

Almanac

Astronomy

Apr. 28, 2017 Rise Set
Actual Time
Civil Twilight
Nautical Twilight
Astronomical Twilight
Moon
Length of Visible Light
Length of Day
Tomorrow will be .
, % of the Moon is Illuminated

Today's Extremes

State Highs State Lows

Community

WunderPhotos

WunderBlog® & News

Nearby

Air Quality

  Air Quality AQ Index Pollutant
Not available.

Snow Depth

Station Depth Elevation

Earthquake Activity

City Distance Mag. Time & Date
Minimum magnitude displayed is 2.5.

Coastal Water Temperatures

Place Temperature

Stations

Nearby Weather Stations

Station Location Temp. Windchill Dew Point Humidity Wind Precip. Elev Updated Type
                   

Watches & Warnings

There are currently no watches in effect.